Time,TemperatureF,DewpointF,PressureIn,WindDirection,WindDirectionDegrees,WindSpeedMPH,WindSpeedGustMPH,Humidity,HourlyPrecipIn,Conditions,Clouds,dailyrainin,SolarRadiationWatts/m^2,SoftwareType,DateUTC
2013-07-18 00:42:00,55.0,52.0,-100.00,SE,132,3.0,4.0,88,0.00,,,0.00,0.000000,,2013-07-18 07:42:00,
2013-07-18 02:50:00,52.0,50.0,-100.00,SE,130,3.0,4.0,93,-99.99,,,0.00,0.000000,,2013-07-18 09:50:00,
2013-07-18 03:21:00,52.0,50.0,-100.00,SE,130,3.0,4.0,93,-99.99,,,0.00,0.000000,,2013-07-18 10:21:00,
2013-07-18 03:32:00,52.0,50.0,-100.00,SE,130,3.0,4.0,93,-99.99,,,0.00,0.000000,,2013-07-18 10:32:00,
2013-07-18 03:42:00,52.0,50.0,-100.00,SE,130,3.0,4.0,93,-99.99,,,0.00,0.000000,,2013-07-18 10:42:00,
2013-07-18 03:50:00,50.0,49.0,-100.00,SE,136,1.0,4.0,95,0.00,,,0.00,0.000000,,2013-07-18 10:50:00,
2013-07-18 04:22:00,50.0,49.0,-100.00,SE,136,1.0,4.0,95,0.00,,,0.00,0.000000,,2013-07-18 11:22:00,
2013-07-18 04:32:00,50.0,49.0,-100.00,SE,136,1.0,4.0,95,0.00,,,0.00,0.000000,,2013-07-18 11:32:00,
2013-07-18 04:43:00,50.0,49.0,-100.00,SE,136,1.0,4.0,95,0.00,,,0.00,0.000000,,2013-07-18 11:43:00,
2013-07-18 04:50:00,51.0,49.0,-100.00,SE,133,2.0,3.0,94,0.00,,,0.00,0.000000,,2013-07-18 11:50:00,
2013-07-18 05:22:00,51.0,49.0,-100.00,SE,133,2.0,3.0,94,0.00,,,0.00,0.000000,,2013-07-18 12:22:00,
2013-07-18 05:32:00,51.0,49.0,-100.00,SE,133,2.0,3.0,94,0.00,,,0.00,0.000000,,2013-07-18 12:32:00,
2013-07-18 05:50:00,51.0,49.0,-100.00,ESE,121,2.0,4.0,94,0.00,,,0.00,1.000000,,2013-07-18 12:50:00,
2013-07-18 06:22:00,51.0,49.0,-100.00,ESE,121,2.0,4.0,94,0.00,,,0.00,1.000000,,2013-07-18 13:22:00,
2013-07-18 06:32:00,51.0,49.0,-100.00,ESE,121,2.0,4.0,94,0.00,,,0.00,1.000000,,2013-07-18 13:32:00,
2013-07-18 06:43:00,51.0,49.0,-100.00,ESE,121,2.0,4.0,94,0.00,,,0.00,1.000000,,2013-07-18 13:43:00,
2013-07-18 06:50:00,50.0,48.0,-100.00,SSE,165,1.0,4.0,93,0.00,,,0.00,10.000000,,2013-07-18 13:50:00,
2013-07-18 07:22:00,50.0,48.0,-100.00,SSE,165,1.0,4.0,93,0.00,,,0.00,10.000000,,2013-07-18 14:22:00,
2013-07-18 07:32:00,50.0,48.0,-100.00,SSE,165,1.0,4.0,93,0.00,,,0.00,10.000000,,2013-07-18 14:32:00,
2013-07-18 07:43:00,50.0,48.0,-100.00,SSE,165,1.0,4.0,93,0.00,,,0.00,10.000000,,2013-07-18 14:43:00,
2013-07-18 07:50:00,57.0,55.0,-100.00,NNW,331,1.0,3.0,92,0.00,,,0.00,104.000000,,2013-07-18 14:50:00,
2013-07-18 08:50:00,62.0,55.0,-100.00,NNW,328,4.0,6.0,78,0.00,,,-99.99,366.000000,,2013-07-18 15:50:00,
2013-07-18 09:22:00,62.0,55.0,-100.00,NNW,328,4.0,6.0,78,0.00,,,-99.99,366.000000,,2013-07-18 16:22:00,
2013-07-18 09:32:00,62.0,55.0,-100.00,NNW,328,4.0,6.0,78,0.00,,,-99.99,366.000000,,2013-07-18 16:32:00,
2013-07-18 09:42:00,62.0,55.0,-100.00,NNW,328,4.0,6.0,78,0.00,,,-99.99,366.000000,,2013-07-18 16:42:00,
2013-07-18 09:50:00,68.0,53.0,-100.00,NW,320,5.0,9.0,58,0.00,,,0.00,550.000000,,2013-07-18 16:50:00,
2013-07-18 10:22:00,68.0,53.0,-100.00,NW,320,5.0,9.0,58,0.00,,,0.00,550.000000,,2013-07-18 17:22:00,
2013-07-18 10:33:00,68.0,53.0,-100.00,NW,320,5.0,9.0,58,0.00,,,0.00,550.000000,,2013-07-18 17:33:00,
2013-07-18 10:43:00,68.0,53.0,-100.00,NW,320,5.0,9.0,58,0.00,,,0.00,550.000000,,2013-07-18 17:43:00,
2013-07-18 10:50:00,76.0,55.0,-100.00,NW,318,6.0,9.0,48,0.00,,,0.00,717.000000,,2013-07-18 17:50:00,
2013-07-18 11:22:00,76.0,55.0,-100.00,NW,318,6.0,9.0,48,0.00,,,0.00,717.000000,,2013-07-18 18:22:00,
2013-07-18 11:32:00,76.0,55.0,-100.00,NW,318,6.0,9.0,48,0.00,,,0.00,717.000000,,2013-07-18 18:32:00,
2013-07-18 11:43:00,76.0,55.0,-100.00,NW,318,6.0,9.0,48,0.00,,,0.00,717.000000,,2013-07-18 18:43:00,
2013-07-18 11:50:00,82.0,57.0,-100.00,NW,323,6.0,10.0,42,0.00,,,0.00,813.000000,,2013-07-18 18:50:00,
2013-07-18 12:22:00,82.0,57.0,-100.00,NW,323,6.0,10.0,42,0.00,,,0.00,813.000000,,2013-07-18 19:22:00,
2013-07-18 12:32:00,82.0,57.0,-100.00,NW,323,6.0,10.0,42,0.00,,,0.00,813.000000,,2013-07-18 19:32:00,
2013-07-18 12:43:00,82.0,57.0,-100.00,NW,323,6.0,10.0,42,0.00,,,0.00,813.000000,,2013-07-18 19:43:00,
2013-07-18 12:50:00,87.0,54.0,-100.00,NNW,333,8.0,12.0,32,0.00,,,0.00,925.000000,,2013-07-18 19:50:00,
2013-07-18 13:21:00,87.0,54.0,-100.00,NNW,333,8.0,12.0,32,0.00,,,0.00,925.000000,,2013-07-18 20:21:00,
2013-07-18 13:32:00,87.0,54.0,-100.00,NNW,333,8.0,12.0,32,0.00,,,0.00,925.000000,,2013-07-18 20:32:00,
2013-07-18 13:43:00,87.0,54.0,-100.00,NNW,333,8.0,12.0,32,0.00,,,0.00,925.000000,,2013-07-18 20:43:00,
2013-07-18 13:50:00,90.0,49.0,-100.00,NW,319,11.0,16.0,25,0.00,,,0.00,955.000000,,2013-07-18 20:50:00,
2013-07-18 14:22:00,90.0,49.0,-100.00,NW,319,11.0,16.0,25,0.00,,,0.00,955.000000,,2013-07-18 21:22:00,
2013-07-18 14:32:00,90.0,49.0,-100.00,NW,319,11.0,16.0,25,0.00,,,0.00,955.000000,,2013-07-18 21:32:00,
2013-07-18 14:43:00,90.0,49.0,-100.00,NW,319,11.0,16.0,25,0.00,,,0.00,955.000000,,2013-07-18 21:43:00,
2013-07-18 14:50:00,88.0,51.0,-100.00,NNW,337,16.0,22.0,28,0.00,,,0.00,935.000000,,2013-07-18 21:50:00,
2013-07-18 15:22:00,88.0,51.0,-100.00,NNW,337,16.0,22.0,28,0.00,,,0.00,935.000000,,2013-07-18 22:22:00,
2013-07-18 15:32:00,88.0,51.0,-100.00,NNW,337,16.0,22.0,28,0.00,,,0.00,935.000000,,2013-07-18 22:32:00,
2013-07-18 15:42:00,88.0,51.0,-100.00,NNW,337,16.0,22.0,28,0.00,,,0.00,935.000000,,2013-07-18 22:42:00,
2013-07-18 15:50:00,88.0,48.0,-100.00,NW,319,16.0,23.0,25,0.00,,,-99.99,848.000000,,2013-07-18 22:50:00,
2013-07-18 16:22:00,88.0,48.0,-100.00,NW,319,16.0,23.0,25,0.00,,,-99.99,848.000000,,2013-07-18 23:22:00,
2013-07-18 16:32:00,88.0,48.0,-100.00,NW,319,16.0,23.0,25,0.00,,,-99.99,848.000000,,2013-07-18 23:32:00,
2013-07-18 16:42:00,88.0,48.0,-100.00,NW,319,16.0,23.0,25,0.00,,,-99.99,848.000000,,2013-07-18 23:42:00,
2013-07-18 16:50:00,86.0,46.0,-100.00,NW,324,15.0,22.0,25,0.00,,,0.00,719.000000,,2013-07-18 23:50:00,
2013-07-18 17:22:00,86.0,46.0,-100.00,NW,324,15.0,22.0,25,0.00,,,0.00,719.000000,,2013-07-19 00:22:00,
2013-07-18 17:32:00,86.0,46.0,-100.00,NW,324,15.0,22.0,25,0.00,,,0.00,719.000000,,2013-07-19 00:32:00,
2013-07-18 17:42:00,86.0,46.0,-100.00,NW,324,15.0,22.0,25,0.00,,,0.00,719.000000,,2013-07-19 00:42:00,
2013-07-18 17:50:00,83.0,41.0,-100.00,NNW,328,15.0,24.0,23,0.00,,,0.00,563.000000,,2013-07-19 00:50:00,
2013-07-18 18:22:00,83.0,41.0,-100.00,NNW,328,15.0,24.0,23,0.00,,,0.00,563.000000,,2013-07-19 01:22:00,
2013-07-18 18:32:00,83.0,41.0,-100.00,NNW,328,15.0,24.0,23,0.00,,,0.00,563.000000,,2013-07-19 01:32:00,
2013-07-18 18:42:00,83.0,41.0,-100.00,NNW,328,15.0,24.0,23,0.00,,,0.00,563.000000,,2013-07-19 01:42:00,
2013-07-18 18:50:00,80.0,43.0,-100.00,NNW,336,10.0,15.0,27,0.00,,,0.00,382.000000,,2013-07-19 01:50:00,
2013-07-18 19:22:00,80.0,43.0,-100.00,NNW,336,10.0,15.0,27,0.00,,,0.00,382.000000,,2013-07-19 02:22:00,
2013-07-18 19:32:00,80.0,43.0,-100.00,NNW,336,10.0,15.0,27,0.00,,,0.00,382.000000,,2013-07-19 02:32:00,
2013-07-18 19:42:00,80.0,43.0,-100.00,NNW,336,10.0,15.0,27,0.00,,,0.00,382.000000,,2013-07-19 02:42:00,
2013-07-18 19:50:00,75.0,46.0,-100.00,NW,312,7.0,15.0,36,0.00,,,0.00,195.000000,,2013-07-19 02:50:00,
2013-07-18 20:22:00,75.0,46.0,-100.00,NW,312,7.0,15.0,36,0.00,,,0.00,195.000000,,2013-07-19 03:22:00,
2013-07-18 20:32:00,75.0,46.0,-100.00,NW,312,7.0,15.0,36,0.00,,,0.00,195.000000,,2013-07-19 03:32:00,
2013-07-18 20:42:00,75.0,46.0,-100.00,NW,312,7.0,15.0,36,0.00,,,0.00,195.000000,,2013-07-19 03:42:00,
2013-07-18 20:50:00,69.0,48.0,-100.00,NW,321,5.0,9.0,48,0.00,,,0.00,33.000000,,2013-07-19 03:50:00,
2013-07-18 21:22:00,69.0,48.0,-100.00,NW,321,5.0,9.0,48,0.00,,,0.00,33.000000,,2013-07-19 04:22:00,
2013-07-18 21:32:00,69.0,48.0,-100.00,NW,321,5.0,9.0,48,0.00,,,0.00,33.000000,,2013-07-19 04:32:00,
2013-07-18 21:43:00,69.0,48.0,-100.00,NW,321,5.0,9.0,48,0.00,,,0.00,33.000000,,2013-07-19 04:43:00,
2013-07-18 21:50:00,63.0,50.0,-100.00,NNW,343,4.0,9.0,62,0.00,,,0.00,1.000000,,2013-07-19 04:50:00,
2013-07-18 22:22:00,63.0,50.0,-100.00,NNW,343,4.0,9.0,62,0.00,,,0.00,1.000000,,2013-07-19 05:22:00,
2013-07-18 22:32:00,63.0,50.0,-100.00,NNW,343,4.0,9.0,62,0.00,,,0.00,1.000000,,2013-07-19 05:32:00,
2013-07-18 22:42:00,63.0,50.0,-100.00,NNW,343,4.0,9.0,62,0.00,,,0.00,1.000000,,2013-07-19 05:42:00,
2013-07-18 22:50:00,59.0,50.0,-100.00,NW,314,3.0,7.0,71,0.00,,,0.00,0.000000,,2013-07-19 05:50:00,
2013-07-18 23:32:00,59.0,50.0,-100.00,NW,314,3.0,7.0,71,0.00,,,0.00,0.000000,,2013-07-19 06:32:00,
2013-07-18 23:43:00,59.0,50.0,-100.00,NW,314,3.0,7.0,71,0.00,,,0.00,0.000000,,2013-07-19 06:43:00,
2013-07-18 23:50:00,57.0,51.0,-100.00,NW,312,2.0,4.0,79,0.00,,,0.00,0.000000,,2013-07-19 06:50:00,